createdAt,value
2022-12-17T00:00:34.167Z,82.78
2022-12-17T00:03:34.565Z,80.28
2022-12-17T00:06:31.649Z,82.57
2022-12-17T00:09:25.483Z,78.43
2022-12-17T00:12:19.397Z,82.82
2022-12-17T00:15:19.021Z,76.05
2022-12-17T00:18:28.175Z,79.40
2022-12-17T00:21:27.934Z,81.78
2022-12-17T00:24:21.763Z,86.35
2022-12-17T00:27:18.936Z,84.90
2022-12-17T00:30:09.694Z,90.22
2022-12-17T00:33:09.651Z,86.65
2022-12-17T00:36:12.913Z,85.50
2022-12-17T00:39:10.174Z,86.18
2022-12-17T00:42:09.423Z,89.05
2022-12-17T00:45:07.106Z,85.38
2022-12-17T00:47:57.924Z,86.93
2022-12-17T00:50:59.793Z,88.07
2022-12-17T00:54:11.078Z,85.68
2022-12-17T00:57:12.464Z,89.38
2022-12-17T01:00:05.319Z,85.95
2022-12-17T01:03:00.155Z,90.90
2022-12-17T01:06:01.929Z,88.65
2022-12-17T01:09:01.033Z,85.20
2022-12-17T01:12:01.160Z,86.30
2022-12-17T01:14:51.978Z,91.13
2022-12-17T01:17:48.908Z,88.90
2022-12-17T01:20:39.675Z,87.38
2022-12-17T01:23:42.805Z,88.18
2022-12-17T01:26:37.992Z,84.63
2022-12-17T01:29:32.381Z,83.10
2022-12-17T01:32:26.000Z,79.30
2022-12-17T01:35:18.905Z,85.85
2022-12-17T01:38:12.709Z,84.13
2022-12-17T01:41:16.918Z,83.50
2022-12-17T01:44:18.382Z,80.43
2022-12-17T01:47:16.256Z,79.28
2022-12-17T01:50:10.053Z,77.10
2022-12-17T01:53:14.883Z,77.93
2022-12-17T01:56:09.870Z,81.47
2022-12-17T01:59:03.728Z,83.60
2022-12-17T02:02:05.426Z,81.32
2022-12-17T02:04:57.204Z,78.82
2022-12-17T02:08:23.951Z,78.28
2022-12-17T02:11:43.996Z,77.25
2022-12-17T02:14:49.523Z,77.75
2022-12-17T02:18:00.156Z,77.95
2022-12-17T02:21:13.304Z,78.40
2022-12-17T02:24:24.630Z,73.47
2022-12-17T02:27:38.592Z,76.07
2022-12-17T02:30:38.968Z,75.85
2022-12-17T02:33:38.920Z,75.50
2022-12-17T02:36:41.917Z,71.57
2022-12-17T02:39:40.009Z,73.45
2022-12-17T02:42:38.448Z,75.07
2022-12-17T02:45:33.909Z,70.90
2022-12-17T02:48:27.265Z,68.45
2022-12-17T02:51:20.432Z,70.40
2022-12-17T02:54:20.488Z,73.85
2022-12-17T02:57:17.855Z,72.20
2022-12-17T03:00:11.619Z,72.57
2022-12-17T03:03:08.780Z,70.75
2022-12-17T03:05:58.695Z,69.53
2022-12-17T03:09:05.878Z,74.70
2022-12-17T03:12:02.554Z,74.68
2022-12-17T03:14:53.873Z,71.65
2022-12-17T03:17:50.779Z,71.50
2022-12-17T03:20:50.971Z,72.78
2022-12-17T03:23:44.330Z,70.00
2022-12-17T03:26:45.801Z,72.50
2022-12-17T03:29:44.679Z,66.45
2022-12-17T03:32:36.310Z,68.80
2022-12-17T03:35:30.867Z,68.40
2022-12-17T03:38:31.561Z,66.35
2022-12-17T03:41:28.190Z,68.88
2022-12-17T03:44:27.665Z,67.63
2022-12-17T03:47:26.916Z,69.18
2022-12-17T03:50:26.018Z,66.22
2022-12-17T03:53:29.013Z,66.75
2022-12-17T03:56:31.303Z,67.05
2022-12-17T03:59:31.157Z,69.82
2022-12-17T04:02:28.224Z,69.22
2022-12-17T04:05:21.980Z,64.35
2022-12-17T04:08:18.898Z,67.20
2022-12-17T04:11:18.297Z,67.50
2022-12-17T04:14:10.162Z,63.38
2022-12-17T04:17:07.526Z,65.32
2022-12-17T04:20:09.980Z,64.30
2022-12-17T04:23:07.314Z,63.45
2022-12-17T04:26:05.785Z,62.95
2022-12-17T04:29:10.221Z,60.35
2022-12-17T04:32:10.759Z,62.25
2022-12-17T04:35:04.517Z,63.42
2022-12-17T04:37:59.150Z,65.30
2022-12-17T04:40:55.560Z,63.95
2022-12-17T04:43:49.957Z,63.78
2022-12-17T04:46:46.186Z,66.47
2022-12-17T04:49:59.459Z,61.90
2022-12-17T04:53:01.097Z,65.25
2022-12-17T04:56:00.202Z,63.70
2022-12-17T04:58:51.083Z,64.43
2022-12-17T05:01:47.770Z,62.88
2022-12-17T05:04:42.028Z,66.32
2022-12-17T05:07:41.208Z,66.32
2022-12-17T05:10:40.657Z,65.20
2022-12-17T05:13:49.785Z,60.97
2022-12-17T05:16:52.347Z,61.65
2022-12-17T05:19:50.116Z,63.42
2022-12-17T05:22:44.578Z,65.30
2022-12-17T05:25:38.826Z,62.15
2022-12-17T05:28:44.796Z,59.42
2022-12-17T05:31:46.956Z,59.65
2022-12-17T05:34:44.240Z,59.47
2022-12-17T05:37:41.041Z,59.35
2022-12-17T05:40:35.067Z,57.47
2022-12-17T05:43:37.349Z,58.97
2022-12-17T05:46:34.419Z,59.75
2022-12-17T05:49:31.872Z,62.22
2022-12-17T05:52:31.057Z,55.42
2022-12-17T05:55:36.262Z,53.83
2022-12-17T05:58:36.834Z,60.83
2022-12-17T06:01:36.332Z,56.75
2022-12-17T06:04:33.748Z,52.55
2022-12-17T06:07:33.956Z,55.58
2022-12-17T06:10:25.537Z,54.63
2022-12-17T06:13:25.077Z,54.53
2022-12-17T06:16:21.288Z,51.58
2022-12-17T06:19:12.213Z,54.92
2022-12-17T06:22:15.054Z,49.78
2022-12-17T06:25:12.011Z,49.35
2022-12-17T06:28:28.064Z,52.50
2022-12-17T06:31:21.596Z,51.00
2022-12-17T06:34:20.661Z,49.17
2022-12-17T06:37:11.493Z,50.25
2022-12-17T06:42:59.946Z,49.40
2022-12-17T06:45:59.696Z,52.40
2022-12-17T06:48:56.512Z,50.25
2022-12-17T06:51:49.910Z,48.58
2022-12-17T06:54:46.307Z,47.58
2022-12-17T06:57:50.502Z,47.58
2022-12-17T07:00:47.995Z,49.00
2022-12-17T07:03:41.853Z,45.65
2022-12-17T07:06:35.838Z,46.47
2022-12-17T07:12:23.986Z,40.22
2022-12-17T07:15:23.817Z,43.58
2022-12-17T07:18:25.088Z,45.50
2022-12-17T07:21:21.258Z,42.30
2022-12-17T07:24:15.153Z,44.53
2022-12-17T07:27:08.969Z,42.53
2022-12-17T07:30:03.932Z,43.85
2022-12-17T07:33:06.895Z,43.15
2022-12-17T07:35:57.521Z,44.78
2022-12-17T07:38:59.836Z,42.75
2022-12-17T07:41:57.481Z,45.33
2022-12-17T07:44:52.142Z,47.00
2022-12-17T07:47:51.619Z,42.45
2022-12-17T07:50:51.054Z,40.67
2022-12-17T07:53:49.877Z,40.85
2022-12-17T07:56:43.643Z,43.35
2022-12-17T07:59:41.872Z,43.45
2022-12-17T08:02:43.247Z,39.47
2022-12-17T08:05:44.616Z,42.33
2022-12-17T08:08:44.367Z,37.78
2022-12-17T08:11:38.408Z,39.08
2022-12-17T08:14:37.910Z,39.90
2022-12-17T08:17:40.538Z,41.42
2022-12-17T08:20:47.292Z,40.35
2022-12-17T08:23:56.580Z,43.20
2022-12-17T08:26:53.963Z,38.72
2022-12-17T08:30:04.022Z,39.22
2022-12-17T08:33:10.737Z,39.08
2022-12-17T08:36:15.919Z,43.42
2022-12-17T08:39:12.325Z,39.55
2022-12-17T08:42:11.933Z,44.67
2022-12-17T08:45:19.777Z,44.80
2022-12-17T08:48:48.245Z,43.47
2022-12-17T08:51:48.837Z,40.47
2022-12-17T08:54:45.454Z,48.15
2022-12-17T08:57:44.383Z,43.30
2022-12-17T09:00:41.500Z,42.70
2022-12-17T09:03:36.081Z,43.95
2022-12-17T09:06:27.718Z,43.53
2022-12-17T09:09:25.851Z,43.67
2022-12-17T09:12:22.282Z,41.15
2022-12-17T09:15:22.761Z,40.42
2022-12-17T09:18:25.814Z,44.90
2022-12-17T09:21:23.012Z,43.50
2022-12-17T09:24:22.566Z,44.88
2022-12-17T09:27:20.067Z,47.17
2022-12-17T09:30:17.938Z,43.55
2022-12-17T09:33:15.363Z,46.40
2022-12-17T09:36:37.577Z,44.08
2022-12-17T09:39:40.277Z,42.97
2022-12-17T09:43:02.709Z,45.45
2022-12-17T09:46:21.518Z,44.72
2022-12-17T09:49:37.670Z,45.00
2022-12-17T09:52:50.256Z,45.53
2022-12-17T09:56:03.859Z,44.38
2022-12-17T09:59:07.578Z,45.33
2022-12-17T10:02:06.073Z,53.85
2022-12-17T10:05:30.601Z,48.53
2022-12-17T10:08:40.232Z,45.75
2022-12-17T10:11:48.189Z,46.75
2022-12-17T10:14:47.229Z,46.22
2022-12-17T10:17:48.930Z,48.85
2022-12-17T10:21:10.338Z,47.47
2022-12-17T10:24:22.652Z,43.30
2022-12-17T10:27:38.969Z,47.13
2022-12-17T10:30:44.000Z,46.00
2022-12-17T10:33:45.793Z,46.25
2022-12-17T10:36:54.776Z,46.20
2022-12-17T10:39:49.293Z,45.00
2022-12-17T10:42:58.000Z,42.38
2022-12-17T10:45:54.796Z,43.25
2022-12-17T10:48:59.439Z,42.63
2022-12-17T10:51:56.998Z,44.30
2022-12-17T10:55:12.307Z,45.50
2022-12-17T10:58:11.193Z,43.45
2022-12-17T11:01:09.017Z,44.53
2022-12-17T11:04:11.654Z,45.80
2022-12-17T11:07:05.460Z,45.83
2022-12-17T11:10:21.195Z,45.50
2022-12-17T11:13:15.278Z,47.58
2022-12-17T11:16:17.132Z,44.85
2022-12-17T11:19:14.435Z,44.88
2022-12-17T11:22:21.131Z,47.80
2022-12-17T11:25:46.912Z,40.90
2022-12-17T11:28:55.133Z,41.15
2022-12-17T11:32:17.519Z,42.78
2022-12-17T11:35:32.786Z,43.22
2022-12-17T11:38:58.165Z,45.25
2022-12-17T11:42:11.545Z,40.00
2022-12-17T11:45:25.283Z,40.47
2022-12-17T11:48:49.010Z,43.55
2022-12-17T11:52:21.459Z,42.85
2022-12-17T11:55:41.857Z,41.97
2022-12-17T11:58:59.446Z,43.33
2022-12-17T12:02:15.710Z,42.50
2022-12-17T12:05:37.388Z,40.30
2022-12-17T12:08:45.575Z,41.40
2022-12-17T12:12:29.950Z,40.80
2022-12-17T12:15:59.059Z,39.63
2022-12-17T12:19:20.797Z,41.60
2022-12-17T12:23:04.963Z,41.45
2022-12-17T12:26:07.084Z,38.30
2022-12-17T12:29:21.751Z,37.72
2022-12-17T12:32:38.172Z,40.42
2022-12-17T12:35:42.917Z,38.10
2022-12-17T12:38:56.295Z,37.63
2022-12-17T12:42:02.202Z,39.60
2022-12-17T12:45:34.799Z,42.15
2022-12-17T12:49:04.542Z,38.08
2022-12-17T12:51:57.338Z,36.28
2022-12-17T12:54:50.977Z,38.50
2022-12-17T12:57:53.773Z,38.35
2022-12-17T13:01:11.765Z,36.00
2022-12-17T13:04:47.895Z,37.88
2022-12-17T13:07:34.079Z,42.17
2022-12-17T13:10:37.590Z,45.08
2022-12-17T13:13:40.106Z,43.92
2022-12-17T13:16:43.720Z,39.20
2022-12-17T13:19:38.362Z,38.70
2022-12-17T13:22:24.106Z,37.80
2022-12-17T13:25:22.340Z,41.47
2022-12-17T13:28:03.410Z,42.65
2022-12-17T13:30:42.010Z,41.58
2022-12-17T13:33:53.858Z,46.28
2022-12-17T13:37:06.209Z,43.00
2022-12-17T13:40:25.911Z,45.17
2022-12-17T13:43:17.666Z,37.90
2022-12-17T13:46:06.261Z,39.50
2022-12-17T13:48:58.186Z,36.00
2022-12-17T13:51:41.020Z,39.80
2022-12-17T13:54:32.193Z,44.25
2022-12-17T13:57:39.586Z,45.15
2022-12-17T14:00:28.128Z,47.63
2022-12-17T14:03:42.847Z,49.20
2022-12-17T14:06:30.896Z,58.63
2022-12-17T14:09:12.217Z,48.67
2022-12-17T14:12:27.090Z,45.85
2022-12-17T14:15:08.720Z,46.33
2022-12-17T14:17:56.707Z,47.05
2022-12-17T14:20:38.166Z,48.65
2022-12-17T14:23:35.614Z,60.30
2022-12-17T14:26:21.542Z,42.97
2022-12-17T14:29:19.329Z,42.33
2022-12-17T14:32:07.230Z,41.70
2022-12-17T14:35:00.780Z,42.60
2022-12-17T14:37:37.632Z,45.47
2022-12-17T14:42:55.492Z,45.63
2022-12-17T14:46:01.382Z,43.83
2022-12-17T14:49:06.070Z,44.72
2022-12-17T14:51:45.166Z,44.95
2022-12-17T14:54:45.398Z,43.03
2022-12-17T14:57:30.708Z,56.10
2022-12-17T15:00:16.351Z,42.38
2022-12-17T15:03:01.379Z,42.93
2022-12-17T15:05:46.507Z,42.72
2022-12-17T15:08:54.180Z,44.00
2022-12-17T15:11:29.621Z,47.03
2022-12-17T15:14:21.995Z,47.25
2022-12-17T15:17:04.680Z,47.15
2022-12-17T15:19:45.401Z,44.03
2022-12-17T15:22:31.877Z,48.07
2022-12-17T15:25:13.410Z,46.35
2022-12-17T15:28:01.776Z,44.78
2022-12-17T15:30:42.687Z,44.85
2022-12-17T15:33:19.562Z,42.20
2022-12-17T15:36:11.076Z,46.83
2022-12-17T15:38:50.802Z,48.25
2022-12-17T15:41:52.125Z,52.00
2022-12-17T15:44:50.757Z,53.85
2022-12-17T15:47:32.290Z,45.08
2022-12-17T15:50:22.461Z,46.53
2022-12-17T15:53:09.425Z,57.93
2022-12-17T15:55:45.534Z,53.20
2022-12-17T15:58:33.648Z,51.70
2022-12-17T16:01:13.933Z,48.65
2022-12-17T16:03:55.607Z,45.47
2022-12-17T16:06:36.162Z,51.42
2022-12-17T16:09:26.166Z,50.38
2022-12-17T16:12:13.643Z,45.90
2022-12-17T16:14:54.871Z,51.00
2022-12-17T16:17:43.056Z,47.33
2022-12-17T16:20:29.594Z,52.80
2022-12-17T16:23:04.302Z,56.22
2022-12-17T16:25:46.696Z,52.08
2022-12-17T16:28:30.401Z,50.15
2022-12-17T16:33:56.044Z,45.00
2022-12-17T16:36:52.842Z,50.45
2022-12-17T16:39:34.196Z,64.38
2022-12-17T16:42:17.666Z,59.65
2022-12-17T16:45:11.278Z,55.42
2022-12-17T16:48:00.071Z,52.40
2022-12-17T16:50:38.757Z,55.40
2022-12-17T16:53:24.601Z,51.92
2022-12-17T16:56:07.608Z,47.70
2022-12-17T16:58:52.781Z,50.92
2022-12-17T17:01:57.153Z,51.08
2022-12-17T17:04:39.496Z,51.05
2022-12-17T17:07:14.874Z,36.08
2022-12-17T17:10:03.502Z,52.72
2022-12-17T17:12:41.177Z,50.13
2022-12-17T17:15:19.147Z,42.70
2022-12-17T17:18:01.974Z,42.22
2022-12-17T17:20:42.219Z,43.45
2022-12-17T17:23:22.753Z,44.83
2022-12-17T17:26:07.086Z,50.80
2022-12-17T17:28:47.657Z,40.65
2022-12-17T17:34:52.682Z,43.40
2022-12-17T17:37:37.128Z,41.28
2022-12-17T17:40:27.983Z,42.33
2022-12-17T17:43:09.868Z,41.08
2022-12-17T17:45:44.996Z,46.38
2022-12-17T17:48:31.775Z,42.20
2022-12-17T17:51:52.011Z,44.13
2022-12-17T17:54:42.469Z,43.05
2022-12-17T17:57:22.825Z,43.03
2022-12-17T18:00:10.448Z,43.45
2022-12-17T18:02:54.003Z,42.33
2022-12-17T18:05:42.634Z,37.42
2022-12-17T18:08:20.417Z,44.10
2022-12-17T18:11:06.596Z,42.03
2022-12-17T18:14:00.472Z,42.55
2022-12-17T18:16:48.020Z,39.72
2022-12-17T18:19:32.219Z,42.53
2022-12-17T18:22:26.503Z,42.67
2022-12-17T18:25:10.672Z,46.17
2022-12-17T18:27:54.713Z,47.60
2022-12-17T18:30:33.581Z,43.95
2022-12-17T18:33:15.331Z,39.03
2022-12-17T18:35:57.584Z,38.47
2022-12-17T18:38:39.465Z,37.53
2022-12-17T18:41:32.006Z,40.42
2022-12-17T18:44:18.204Z,39.45
2022-12-17T18:47:11.509Z,41.65
2022-12-17T18:49:55.689Z,40.30
2022-12-17T18:52:35.261Z,42.30
2022-12-17T18:55:21.089Z,39.47
2022-12-17T18:57:59.817Z,38.25
2022-12-17T19:00:49.445Z,41.17
2022-12-17T19:03:25.336Z,40.38
2022-12-17T19:06:19.225Z,51.30
2022-12-17T19:11:44.526Z,40.58
2022-12-17T19:14:23.682Z,36.83
2022-12-17T19:17:15.802Z,39.58
2022-12-17T19:20:00.415Z,39.42
2022-12-17T19:22:47.676Z,37.85
2022-12-17T19:25:25.582Z,35.85
2022-12-17T19:28:11.973Z,43.40
2022-12-17T19:30:52.808Z,38.20
2022-12-17T19:33:34.025Z,36.42
2022-12-17T19:36:28.476Z,45.55
2022-12-17T19:39:27.990Z,40.53
2022-12-17T19:42:03.580Z,36.78
2022-12-17T19:44:57.064Z,36.08
2022-12-17T19:48:14.634Z,35.30
2022-12-17T19:51:07.393Z,33.45
2022-12-17T19:54:09.506Z,34.85
2022-12-17T19:56:51.511Z,31.83
2022-12-17T19:59:34.379Z,31.70
2022-12-17T20:02:21.920Z,31.02
2022-12-17T20:05:06.147Z,33.53
2022-12-17T20:07:48.134Z,33.58
2022-12-17T20:10:37.015Z,30.73
2022-12-17T20:13:20.576Z,31.88
2022-12-17T20:16:18.801Z,30.75
2022-12-17T20:18:58.572Z,30.88
2022-12-17T20:21:47.535Z,30.17
2022-12-17T20:24:32.336Z,30.30
2022-12-17T20:27:16.617Z,28.70
2022-12-17T20:29:58.898Z,28.80
2022-12-17T20:32:53.547Z,29.10
2022-12-17T20:35:53.394Z,29.30
2022-12-17T20:38:45.824Z,28.95
2022-12-17T20:41:27.763Z,30.63
2022-12-17T20:44:19.964Z,29.55
2022-12-17T20:47:11.137Z,31.90
2022-12-17T20:49:51.529Z,30.63
2022-12-17T20:52:37.366Z,28.55
2022-12-17T20:55:25.277Z,29.98
2022-12-17T20:58:16.548Z,28.95
2022-12-17T21:01:00.102Z,28.65
2022-12-17T21:06:21.988Z,29.00
2022-12-17T21:09:12.842Z,31.23
2022-12-17T21:11:47.092Z,30.73
2022-12-17T21:14:46.875Z,28.73
2022-12-17T21:17:30.955Z,29.75
2022-12-17T21:20:23.606Z,26.90
2022-12-17T21:23:07.928Z,30.55
2022-12-17T21:25:55.123Z,29.48
2022-12-17T21:28:45.036Z,28.77
2022-12-17T21:31:37.738Z,29.65
2022-12-17T21:34:24.340Z,27.92
2022-12-17T21:37:05.684Z,28.98
2022-12-17T21:40:02.451Z,29.02
2022-12-17T21:43:03.638Z,28.95
2022-12-17T21:45:57.675Z,30.52
2022-12-17T21:51:33.456Z,29.25
2022-12-17T21:54:20.033Z,28.33
2022-12-17T21:57:06.509Z,30.30
2022-12-17T21:59:51.109Z,30.05
2022-12-17T22:02:35.251Z,29.77
2022-12-17T22:05:23.487Z,28.08
2022-12-17T22:08:12.814Z,29.27
2022-12-17T22:11:19.653Z,26.52
2022-12-17T22:14:12.713Z,27.63
2022-12-17T22:17:01.634Z,28.92
2022-12-17T22:19:40.529Z,31.13
2022-12-17T22:22:27.322Z,28.08
2022-12-17T22:25:24.083Z,26.88
2022-12-17T22:28:10.222Z,26.35
2022-12-17T22:31:12.869Z,27.20
2022-12-17T22:35:09.205Z,26.42
2022-12-17T22:40:29.337Z,27.05
2022-12-17T22:44:30.302Z,27.58
2022-12-17T22:44:41.674Z,27.90
2022-12-17T22:46:44.430Z,27.00
2022-12-17T22:49:25.273Z,26.55
2022-12-17T22:52:05.774Z,27.02
2022-12-17T22:54:47.833Z,24.75
2022-12-17T22:57:36.487Z,27.67
2022-12-17T23:00:34.602Z,28.13
2022-12-17T23:03:28.180Z,26.92
2022-12-17T23:06:48.599Z,29.63
2022-12-17T23:09:37.729Z,23.83
2022-12-17T23:12:33.331Z,25.92
2022-12-17T23:15:13.572Z,26.27
2022-12-17T23:17:58.271Z,25.30
2022-12-17T23:20:39.388Z,26.85
2022-12-17T23:23:19.467Z,27.90
2022-12-17T23:26:06.160Z,21.05
2022-12-17T23:28:57.359Z,27.05
2022-12-17T23:31:40.647Z,26.40
2022-12-17T23:34:26.502Z,26.70
2022-12-17T23:37:08.149Z,27.17
2022-12-17T23:39:58.828Z,25.92
2022-12-17T23:42:39.895Z,24.38
2022-12-17T23:45:23.104Z,27.73
2022-12-17T23:48:12.943Z,27.52
2022-12-17T23:50:59.717Z,25.52
2022-12-17T23:53:49.101Z,25.17
2022-12-17T23:56:30.938Z,24.38
2022-12-17T23:59:12.900Z,25.58
